New Kensington, Pennsylvania
Current Conditions -  °F | °C
As of 6:53 AM on Friday 31 Oct 2014 (Local Time) from KAGC Reporting Station
Overcast Overcast  
Wind Chill: 44°   Ceiling: 4800
Heat Index: 44°   Visibility: 10mi
Dew Point: 34°   Wind: 3mph
Humidity: 68%   Direction: 190°S
Pressure: 29.95"   Gusts: NA
Location:  40.57°N, 79.77°W
Report Text: KAGC 311053Z 19003KT 10SM OVC048 07/01 A2995 RMK AO2 SLP152 T00670011
Loading
Personal Weather Stations






























Interactive Weather Map
Tropical Storm Tracking
New forecast layout! Learn more

10-Day Weather Forecast

Advertisements
Track Severe Weather on mobile